createdAt,value
2018-11-04T00:00:31.698Z,17.90
2018-11-04T00:01:31.730Z,18.60
2018-11-04T00:02:31.758Z,18.40
2018-11-04T00:03:31.787Z,18.20
2018-11-04T00:04:31.818Z,18.50
2018-11-04T00:05:31.848Z,18.50
2018-11-04T00:06:31.879Z,19.00
2018-11-04T00:07:31.910Z,18.40
2018-11-04T00:08:31.944Z,18.10
2018-11-04T00:09:31.969Z,17.30
2018-11-04T00:10:32.001Z,18.50
2018-11-04T00:11:32.031Z,17.70
2018-11-04T00:12:32.060Z,17.60
2018-11-04T00:13:32.091Z,17.80
2018-11-04T00:14:32.121Z,18.30
2018-11-04T00:15:32.152Z,17.90
2018-11-04T00:16:32.182Z,17.40
2018-11-04T00:17:32.211Z,17.30
2018-11-04T00:18:32.243Z,17.20
2018-11-04T00:19:32.273Z,15.90
2018-11-04T00:20:32.304Z,15.90
2018-11-04T00:21:32.333Z,16.70
2018-11-04T00:22:32.364Z,17.50
2018-11-04T00:23:32.395Z,17.70
2018-11-04T00:24:32.424Z,16.40
2018-11-04T00:25:32.459Z,15.30
2018-11-04T00:26:32.486Z,15.30
2018-11-04T00:27:32.516Z,14.00
2018-11-04T00:28:32.546Z,13.70
2018-11-04T00:29:32.615Z,13.10
2018-11-04T00:30:32.607Z,13.30
2018-11-04T00:31:32.639Z,11.10
2018-11-04T00:32:32.668Z,11.20
2018-11-04T00:33:32.699Z,11.60
2018-11-04T00:34:32.745Z,11.80
2018-11-04T00:35:32.760Z,11.10
2018-11-04T00:36:32.790Z,11.40
2018-11-04T00:37:32.821Z,11.10
2018-11-04T00:38:32.851Z,12.60
2018-11-04T00:39:32.880Z,12.40
2018-11-04T00:40:32.911Z,12.40
2018-11-04T00:41:32.941Z,13.70
2018-11-04T00:42:32.972Z,12.70
2018-11-04T00:43:33.001Z,12.40
2018-11-04T00:44:33.031Z,12.50
2018-11-04T00:45:33.122Z,12.90
2018-11-04T00:46:33.119Z,13.50
2018-11-04T00:47:33.124Z,13.20
2018-11-04T00:48:33.226Z,13.00
2018-11-04T00:49:33.185Z,13.30
2018-11-04T00:50:33.215Z,14.30
2018-11-04T00:51:33.249Z,13.80
2018-11-04T00:52:33.274Z,13.30
2018-11-04T00:53:33.305Z,13.30
2018-11-04T00:54:33.335Z,11.90
2018-11-04T00:55:33.366Z,12.90
2018-11-04T00:56:33.396Z,13.70
2018-11-04T00:57:33.426Z,14.90
2018-11-04T00:58:33.456Z,14.40
2018-11-04T00:59:33.487Z,13.90
2018-11-04T01:00:33.517Z,12.90
2018-11-04T01:01:33.607Z,13.70
2018-11-04T01:02:33.585Z,13.90
2018-11-04T01:03:33.615Z,12.80
2018-11-04T01:04:33.645Z,12.90
2018-11-04T01:05:33.668Z,14.00
2018-11-04T01:06:33.704Z,13.70
2018-11-04T01:07:33.729Z,13.90
2018-11-04T01:08:33.758Z,15.30
2018-11-04T01:09:33.789Z,14.40
2018-11-04T01:10:33.820Z,14.20
2018-11-04T01:11:33.853Z,15.00
2018-11-04T01:12:33.881Z,14.10
2018-11-04T01:13:33.932Z,14.90
2018-11-04T01:14:33.942Z,14.90
2018-11-04T01:15:33.972Z,15.60
2018-11-04T01:16:34.001Z,15.00
2018-11-04T01:17:34.034Z,14.90
2018-11-04T01:18:34.063Z,15.00
2018-11-04T01:19:34.095Z,15.60
2018-11-04T01:20:34.122Z,14.30
2018-11-04T01:21:34.152Z,14.60
2018-11-04T01:22:34.184Z,14.70
2018-11-04T01:23:34.215Z,14.90
2018-11-04T01:24:34.355Z,14.30
2018-11-04T01:25:34.273Z,14.50
2018-11-04T01:26:34.303Z,14.00
2018-11-04T01:27:34.334Z,14.10
2018-11-04T01:28:34.364Z,15.60
2018-11-04T01:29:34.396Z,14.20
2018-11-04T01:30:34.425Z,14.40
2018-11-04T01:31:34.454Z,14.40
2018-11-04T01:32:34.483Z,13.90
2018-11-04T01:33:34.515Z,12.60
2018-11-04T01:34:34.544Z,14.20
2018-11-04T01:35:34.576Z,14.50
2018-11-04T01:36:34.608Z,14.70
2018-11-04T01:37:34.639Z,13.40
2018-11-04T01:38:34.665Z,14.00
2018-11-04T01:39:34.697Z,14.30
2018-11-04T01:40:34.726Z,14.90
2018-11-04T01:41:34.755Z,16.20
2018-11-04T01:42:34.789Z,15.70
2018-11-04T01:43:34.817Z,15.50
2018-11-04T01:44:34.846Z,15.40
2018-11-04T01:45:34.878Z,15.40
2018-11-04T01:46:34.910Z,14.20
2018-11-04T01:47:34.937Z,14.10
2018-11-04T01:48:34.967Z,14.80
2018-11-04T01:49:34.996Z,13.50
2018-11-04T01:50:35.027Z,13.10
2018-11-04T01:51:35.059Z,13.30
2018-11-04T01:52:35.085Z,13.10
2018-11-04T01:53:35.117Z,12.90
2018-11-04T01:54:35.148Z,12.60
2018-11-04T01:55:35.178Z,13.40
2018-11-04T01:56:35.206Z,13.50
2018-11-04T01:57:35.237Z,13.60
2018-11-04T01:58:35.267Z,12.40
2018-11-04T01:59:35.297Z,12.90
2018-11-04T02:00:35.326Z,13.80
2018-11-04T02:01:35.357Z,14.10
2018-11-04T02:02:35.387Z,13.90
2018-11-04T02:03:35.420Z,13.50
2018-11-04T02:04:35.446Z,13.30
2018-11-04T02:05:35.477Z,14.20
2018-11-04T02:06:35.509Z,12.90
2018-11-04T02:07:35.537Z,13.70
2018-11-04T02:08:35.567Z,13.40
2018-11-04T02:09:35.597Z,13.20
2018-11-04T02:10:35.628Z,12.60
2018-11-04T02:11:35.657Z,14.30
2018-11-04T02:12:35.687Z,14.50
2018-11-04T02:13:35.718Z,15.20
2018-11-04T02:14:35.747Z,12.80
2018-11-04T02:15:35.777Z,13.60
2018-11-04T02:16:35.808Z,12.90
2018-11-04T02:17:35.838Z,13.70
2018-11-04T02:18:35.868Z,13.30
2018-11-04T02:19:35.901Z,13.00
2018-11-04T02:20:35.926Z,14.10
2018-11-04T02:21:35.959Z,13.90
2018-11-04T02:22:35.988Z,14.80
2018-11-04T02:23:36.018Z,14.80
2018-11-04T02:24:36.048Z,15.80
2018-11-04T02:25:36.078Z,15.60
2018-11-04T02:26:36.133Z,15.50
2018-11-04T02:27:36.141Z,18.20
2018-11-04T02:28:36.167Z,16.80
2018-11-04T02:29:36.200Z,17.00
2018-11-04T02:30:36.229Z,13.60
2018-11-04T02:31:36.258Z,12.80
2018-11-04T02:32:36.288Z,12.90
2018-11-04T02:33:36.317Z,14.00
2018-11-04T02:34:36.347Z,13.70
2018-11-04T02:35:36.377Z,15.20
2018-11-04T02:36:36.415Z,14.90
2018-11-04T02:37:36.443Z,14.50
2018-11-04T02:38:36.466Z,13.50
2018-11-04T02:39:36.498Z,14.60
2018-11-04T02:40:36.534Z,14.10
2018-11-04T02:41:36.558Z,15.00
2018-11-04T02:42:36.588Z,14.00
2018-11-04T02:43:36.616Z,14.20
2018-11-04T02:44:36.645Z,14.00
2018-11-04T02:45:36.682Z,13.40
2018-11-04T02:46:36.705Z,13.60
2018-11-04T02:47:36.735Z,14.10
2018-11-04T02:48:36.765Z,14.60
2018-11-04T02:49:36.796Z,14.90
2018-11-04T02:50:36.825Z,14.20
2018-11-04T02:51:36.854Z,13.30
2018-11-04T02:52:36.886Z,12.90
2018-11-04T02:53:36.916Z,14.40
2018-11-04T02:54:36.945Z,14.70
2018-11-04T02:55:36.975Z,14.40
2018-11-04T02:56:37.003Z,13.70
2018-11-04T02:57:37.039Z,14.70
2018-11-04T02:58:37.064Z,13.80
2018-11-04T02:59:37.095Z,13.80
2018-11-04T03:00:37.124Z,13.40
2018-11-04T03:01:37.152Z,14.60
2018-11-04T03:02:37.183Z,14.50
2018-11-04T03:03:37.215Z,15.90
2018-11-04T03:04:37.241Z,16.10
2018-11-04T03:05:37.271Z,17.00
2018-11-04T03:06:37.303Z,16.80
2018-11-04T03:07:37.332Z,15.90
2018-11-04T03:08:37.361Z,16.10
2018-11-04T03:09:37.391Z,17.10
2018-11-04T03:10:37.420Z,16.40
2018-11-04T03:11:37.453Z,16.70
2018-11-04T03:12:37.479Z,16.40
2018-11-04T03:13:37.512Z,16.70
2018-11-04T03:14:37.538Z,16.90
2018-11-04T03:15:37.570Z,15.20
2018-11-04T03:16:37.599Z,15.00
2018-11-04T03:17:37.627Z,15.20
2018-11-04T03:18:37.657Z,14.90
2018-11-04T03:19:37.688Z,13.90
2018-11-04T03:20:37.716Z,13.80
2018-11-04T03:21:37.746Z,15.20
2018-11-04T03:22:37.778Z,14.40
2018-11-04T03:23:37.807Z,15.20
2018-11-04T03:24:37.866Z,14.90
2018-11-04T03:25:37.864Z,15.00
2018-11-04T03:26:37.895Z,15.30
2018-11-04T03:27:37.925Z,15.00
2018-11-04T03:28:37.953Z,15.30
2018-11-04T03:29:37.983Z,16.10
2018-11-04T03:30:38.012Z,16.40
2018-11-04T03:31:38.042Z,16.20
2018-11-04T03:32:38.077Z,17.30
2018-11-04T03:33:38.100Z,17.40
2018-11-04T03:34:38.131Z,17.40
2018-11-04T03:35:38.160Z,16.80
2018-11-04T03:36:38.188Z,15.90
2018-11-04T03:37:38.218Z,16.70
2018-11-04T03:38:38.247Z,16.80
2018-11-04T03:39:38.277Z,16.70
2018-11-04T03:40:38.307Z,17.20
2018-11-04T03:41:38.336Z,17.20
2018-11-04T03:42:38.372Z,17.00
2018-11-04T03:43:38.397Z,16.70
2018-11-04T03:44:38.423Z,17.50
2018-11-04T03:45:38.452Z,17.40
2018-11-04T03:46:38.484Z,16.80
2018-11-04T03:47:38.512Z,16.30
2018-11-04T03:48:38.541Z,15.50
2018-11-04T03:49:38.574Z,14.20
2018-11-04T03:50:38.600Z,15.30
2018-11-04T03:51:38.630Z,16.10
2018-11-04T03:52:38.661Z,15.90
2018-11-04T03:53:38.688Z,16.20
2018-11-04T03:54:38.719Z,15.80
2018-11-04T03:55:38.754Z,16.50
2018-11-04T03:56:38.777Z,18.00
2018-11-04T03:57:38.809Z,16.80
2018-11-04T03:58:38.836Z,16.50
2018-11-04T03:59:38.865Z,16.10
2018-11-04T04:00:38.893Z,16.70
2018-11-04T04:01:38.924Z,16.90
2018-11-04T04:02:38.954Z,16.50
2018-11-04T04:03:38.982Z,16.30
2018-11-04T04:04:39.011Z,16.10
2018-11-04T04:05:39.043Z,16.50
2018-11-04T04:06:39.069Z,16.40
2018-11-04T04:07:39.099Z,15.30
2018-11-04T04:08:39.127Z,15.60
2018-11-04T04:09:39.157Z,14.00
2018-11-04T04:10:39.188Z,15.50
2018-11-04T04:11:39.217Z,14.80
2018-11-04T04:12:39.246Z,16.80
2018-11-04T04:13:39.277Z,16.60
2018-11-04T04:14:39.303Z,15.30
2018-11-04T04:15:39.333Z,14.10
2018-11-04T04:16:39.362Z,14.50
2018-11-04T04:17:39.391Z,15.90
2018-11-04T04:18:39.425Z,16.30
2018-11-04T04:19:39.451Z,16.90
2018-11-04T04:20:39.479Z,16.40
2018-11-04T04:21:39.509Z,17.20
2018-11-04T04:22:39.536Z,17.00
2018-11-04T04:23:39.567Z,15.70
2018-11-04T04:24:39.594Z,17.00
2018-11-04T04:25:39.624Z,17.40
2018-11-04T04:26:39.653Z,15.50
2018-11-04T04:27:39.682Z,15.70
2018-11-04T04:28:39.711Z,16.00
2018-11-04T04:29:39.740Z,16.20
2018-11-04T04:30:39.770Z,14.60
2018-11-04T04:31:39.799Z,14.20
2018-11-04T04:32:39.827Z,14.50
2018-11-04T04:33:39.855Z,13.00
2018-11-04T04:34:39.885Z,13.70
2018-11-04T04:35:39.914Z,14.00
2018-11-04T04:36:39.941Z,14.50
2018-11-04T04:37:39.973Z,14.80
2018-11-04T04:38:39.999Z,14.60
2018-11-04T04:39:40.078Z,14.30
2018-11-04T04:40:40.057Z,14.80
2018-11-04T04:41:40.085Z,14.50
2018-11-04T04:42:40.115Z,15.40
2018-11-04T04:43:40.147Z,15.10
2018-11-04T04:44:40.172Z,15.90
2018-11-04T04:45:40.204Z,15.60
2018-11-04T04:46:40.230Z,13.60
2018-11-04T04:47:40.258Z,13.20
2018-11-04T04:48:40.286Z,14.00
2018-11-04T04:49:40.315Z,14.90
2018-11-04T04:50:40.347Z,14.20
2018-11-04T04:51:40.373Z,14.30
2018-11-04T04:52:40.400Z,14.10
2018-11-04T04:53:40.429Z,14.30
2018-11-04T04:54:40.462Z,14.90
2018-11-04T04:55:40.487Z,15.50
2018-11-04T04:56:40.515Z,14.00
2018-11-04T04:57:40.543Z,14.00
2018-11-04T04:58:40.573Z,14.20
2018-11-04T04:59:40.604Z,14.50
2018-11-04T05:00:40.631Z,14.30
2018-11-04T05:01:40.661Z,14.10
2018-11-04T05:02:40.685Z,13.40
2018-11-04T05:03:40.714Z,13.70
2018-11-04T05:04:40.741Z,14.60
2018-11-04T05:05:40.770Z,13.70
2018-11-04T05:06:40.799Z,12.00
2018-11-04T05:07:40.828Z,13.70
2018-11-04T05:08:40.855Z,15.30
2018-11-04T05:09:40.895Z,13.90
2018-11-04T05:10:40.913Z,12.60
2018-11-04T05:11:40.941Z,12.80
2018-11-04T05:12:40.968Z,12.20
2018-11-04T05:13:41.003Z,12.70
2018-11-04T05:14:41.025Z,13.80
2018-11-04T05:15:41.055Z,14.50
2018-11-04T05:16:41.080Z,14.10
2018-11-04T05:17:41.110Z,14.40
2018-11-04T05:18:41.138Z,14.00
2018-11-04T05:19:41.168Z,13.70
2018-11-04T05:20:41.194Z,13.20
2018-11-04T05:21:41.226Z,13.80
2018-11-04T05:22:41.252Z,13.80
2018-11-04T05:23:41.279Z,15.30
2018-11-04T05:24:41.307Z,16.60
2018-11-04T05:25:41.335Z,16.00
2018-11-04T05:26:41.364Z,17.10
2018-11-04T05:27:41.392Z,17.50
2018-11-04T05:28:41.423Z,17.90
2018-11-04T05:29:41.447Z,20.70
2018-11-04T05:30:41.475Z,20.60
2018-11-04T05:31:41.505Z,18.70
2018-11-04T05:32:41.530Z,18.50
2018-11-04T05:33:41.558Z,19.20
2018-11-04T05:34:41.590Z,20.10
2018-11-04T05:35:41.615Z,18.70
2018-11-04T05:36:41.643Z,19.80
2018-11-04T05:37:41.671Z,18.10
2018-11-04T05:38:41.699Z,16.90
2018-11-04T05:39:41.728Z,14.40
2018-11-04T05:40:41.753Z,14.10
2018-11-04T05:41:41.833Z,15.30
2018-11-04T05:42:41.811Z,14.40
2018-11-04T05:43:41.839Z,15.20
2018-11-04T05:44:41.867Z,13.80
2018-11-04T05:45:41.895Z,14.50
2018-11-04T05:46:41.923Z,15.50
2018-11-04T05:47:41.950Z,18.00
2018-11-04T05:48:41.978Z,17.20
2018-11-04T05:49:42.006Z,18.20
2018-11-04T05:50:42.034Z,18.20
2018-11-04T05:51:42.064Z,18.70
2018-11-04T05:52:42.095Z,15.90
2018-11-04T05:53:42.119Z,16.00
2018-11-04T05:54:42.146Z,16.20
2018-11-04T05:55:42.174Z,16.60
2018-11-04T05:56:42.201Z,18.60
2018-11-04T05:57:42.229Z,17.20
2018-11-04T05:58:42.258Z,19.20
2018-11-04T05:59:42.285Z,19.70
2018-11-04T06:00:42.314Z,21.40
2018-11-04T06:01:42.340Z,20.80
2018-11-04T06:02:42.368Z,21.80
2018-11-04T06:03:42.398Z,21.20
2018-11-04T06:04:42.423Z,19.50
2018-11-04T06:05:42.452Z,19.00
2018-11-04T06:06:42.479Z,19.40
2018-11-04T06:07:42.508Z,19.70
2018-11-04T06:08:42.534Z,21.20
2018-11-04T06:09:42.563Z,20.70
2018-11-04T06:10:42.590Z,21.40
2018-11-04T06:11:42.619Z,17.80
2018-11-04T06:12:42.645Z,16.30
2018-11-04T06:13:42.673Z,17.10
2018-11-04T06:14:42.702Z,17.10
2018-11-04T06:15:42.728Z,18.50
2018-11-04T06:16:42.756Z,18.00
2018-11-04T06:17:42.782Z,19.00
2018-11-04T06:18:42.812Z,20.20
2018-11-04T06:19:42.838Z,19.70
2018-11-04T06:20:42.866Z,18.80
2018-11-04T06:21:42.894Z,19.90
2018-11-04T06:22:42.923Z,19.20
2018-11-04T06:23:42.949Z,18.60
2018-11-04T06:24:42.976Z,17.80
2018-11-04T06:25:43.003Z,17.40
2018-11-04T06:26:43.031Z,17.70
2018-11-04T06:27:43.062Z,18.30
2018-11-04T06:28:43.085Z,18.60
2018-11-04T06:29:43.114Z,23.60
2018-11-04T06:30:43.140Z,22.90
2018-11-04T06:31:43.169Z,25.90
2018-11-04T06:32:43.196Z,22.00
2018-11-04T06:33:43.224Z,21.60
2018-11-04T06:34:43.392Z,25.20
2018-11-04T06:35:43.280Z,24.30
2018-11-04T06:36:43.310Z,25.00
2018-11-04T06:37:43.334Z,25.50
2018-11-04T06:38:43.360Z,24.20
2018-11-04T06:39:43.388Z,24.30
2018-11-04T06:40:43.415Z,24.50
2018-11-04T06:41:43.442Z,23.70
2018-11-04T06:42:43.472Z,24.50
2018-11-04T06:43:43.498Z,23.50
2018-11-04T06:44:43.526Z,22.10
2018-11-04T06:45:43.553Z,22.60
2018-11-04T06:46:43.580Z,23.40
2018-11-04T06:47:43.711Z,23.00
2018-11-04T06:48:43.635Z,23.00
2018-11-04T06:49:43.662Z,22.80
2018-11-04T06:50:43.744Z,22.80
2018-11-04T06:51:43.721Z,22.60
2018-11-04T06:52:43.747Z,22.30
2018-11-04T06:53:43.773Z,23.00
2018-11-04T06:54:43.802Z,22.60
2018-11-04T06:55:43.830Z,23.10
2018-11-04T06:56:43.857Z,21.80
2018-11-04T06:57:43.885Z,19.60
2018-11-04T06:58:43.912Z,19.90
2018-11-04T06:59:43.952Z,21.10
2018-11-04T07:00:44.002Z,21.50
2018-11-04T07:01:43.994Z,21.40
2018-11-04T07:02:44.023Z,23.10
2018-11-04T07:03:44.051Z,22.40
2018-11-04T07:04:44.077Z,22.40
2018-11-04T07:05:44.105Z,22.20
2018-11-04T07:06:44.132Z,20.90
2018-11-04T07:07:44.163Z,21.40
2018-11-04T07:08:44.200Z,20.80
2018-11-04T07:09:44.224Z,20.40
2018-11-04T07:10:44.249Z,22.10
2018-11-04T07:11:44.272Z,21.10
2018-11-04T07:12:44.300Z,20.80
2018-11-04T07:13:44.329Z,19.20
2018-11-04T07:14:44.356Z,18.30
2018-11-04T07:15:44.385Z,16.90
2018-11-04T07:16:44.412Z,16.00
2018-11-04T07:17:44.439Z,18.10
2018-11-04T07:18:44.467Z,20.30
2018-11-04T07:19:44.510Z,18.50
2018-11-04T07:20:44.524Z,17.40
2018-11-04T07:21:44.552Z,17.90
2018-11-04T07:22:44.629Z,17.90
2018-11-04T07:23:44.609Z,17.10
2018-11-04T07:24:44.636Z,19.10
2018-11-04T07:25:44.689Z,17.90
2018-11-04T07:26:44.693Z,17.00
2018-11-04T07:27:44.722Z,18.50
2018-11-04T07:28:44.750Z,18.20
2018-11-04T07:29:44.777Z,17.40
2018-11-04T07:30:44.807Z,19.00
2018-11-04T07:31:44.835Z,18.20
2018-11-04T07:32:44.863Z,17.40
2018-11-04T07:33:44.892Z,17.20
2018-11-04T07:34:44.925Z,18.10
2018-11-04T07:35:44.950Z,17.80
2018-11-04T07:36:44.987Z,17.80
2018-11-04T07:37:45.007Z,17.90
2018-11-04T07:38:45.036Z,18.00
2018-11-04T07:39:45.065Z,17.50
2018-11-04T07:40:45.094Z,17.90
2018-11-04T07:41:45.126Z,18.90
2018-11-04T07:42:45.152Z,18.20
2018-11-04T07:43:45.186Z,18.60
2018-11-04T07:44:45.209Z,17.20
2018-11-04T07:45:45.238Z,17.20
2018-11-04T07:46:45.267Z,18.30
2018-11-04T07:47:45.297Z,18.00
2018-11-04T07:48:45.325Z,17.70
2018-11-04T07:49:45.355Z,17.80
2018-11-04T07:50:45.492Z,18.10
2018-11-04T07:51:45.416Z,17.30
2018-11-04T07:52:45.444Z,16.90
2018-11-04T07:53:45.473Z,17.30
2018-11-04T07:54:45.516Z,17.10
2018-11-04T07:55:45.533Z,17.00
2018-11-04T07:56:45.582Z,17.50
2018-11-04T07:57:47.246Z,18.50
2018-11-04T07:58:45.624Z,19.60
2018-11-04T07:59:45.652Z,18.30
2018-11-04T08:00:45.737Z,19.00
2018-11-04T08:01:45.716Z,18.30
2018-11-04T08:02:45.744Z,18.30
2018-11-04T08:03:45.774Z,19.40
2018-11-04T08:04:45.802Z,19.00
2018-11-04T08:05:45.832Z,19.70
2018-11-04T08:06:45.862Z,20.20
2018-11-04T08:07:45.896Z,19.80
2018-11-04T08:08:45.923Z,20.50
2018-11-04T08:09:45.955Z,21.10
2018-11-04T08:10:45.993Z,20.60
2018-11-04T08:11:46.017Z,21.40
2018-11-04T08:12:46.045Z,23.30
2018-11-04T08:13:46.078Z,22.50
2018-11-04T08:14:46.108Z,22.30
2018-11-04T08:15:46.141Z,21.60
2018-11-04T08:16:46.172Z,23.30
2018-11-04T08:17:46.200Z,23.60
2018-11-04T08:18:46.233Z,23.60
2018-11-04T08:19:46.263Z,22.50
2018-11-04T08:20:46.294Z,20.80
2018-11-04T08:21:46.327Z,20.90
2018-11-04T08:22:46.358Z,20.30
2018-11-04T08:23:46.391Z,19.40
2018-11-04T08:24:46.420Z,19.20
2018-11-04T08:25:46.452Z,20.50
2018-11-04T08:26:46.484Z,18.50
2018-11-04T08:27:46.617Z,18.20
2018-11-04T08:28:46.547Z,17.30
2018-11-04T08:29:46.579Z,17.40
2018-11-04T08:30:46.615Z,16.10
2018-11-04T08:31:46.646Z,17.30
2018-11-04T08:32:46.677Z,16.60
2018-11-04T08:33:46.709Z,15.90
2018-11-04T08:34:46.743Z,16.40
2018-11-04T08:35:46.775Z,17.40
2018-11-04T08:36:46.811Z,16.70
2018-11-04T08:37:46.841Z,16.40
2018-11-04T08:38:46.873Z,17.00
2018-11-04T08:39:47.084Z,16.70
2018-11-04T08:40:46.941Z,17.30
2018-11-04T08:41:46.972Z,16.50
2018-11-04T08:42:47.005Z,16.40
2018-11-04T08:43:47.041Z,17.00
2018-11-04T08:44:47.073Z,16.80
2018-11-04T08:45:47.149Z,17.30
2018-11-04T08:46:47.141Z,17.60
2018-11-04T08:47:47.175Z,18.40
2018-11-04T08:48:47.207Z,18.50
2018-11-04T08:49:47.241Z,16.50
2018-11-04T08:50:47.276Z,17.40
2018-11-04T08:51:47.311Z,16.80
2018-11-04T08:52:47.344Z,16.30
2018-11-04T08:53:47.380Z,17.40
2018-11-04T08:54:47.414Z,17.60
2018-11-04T08:55:47.449Z,17.20
2018-11-04T08:56:47.482Z,17.40
2018-11-04T08:57:47.517Z,17.70
2018-11-04T08:58:47.553Z,17.60
2018-11-04T08:59:47.669Z,16.70
2018-11-04T09:00:47.622Z,17.90
2018-11-04T09:01:47.656Z,17.80
2018-11-04T09:02:47.692Z,17.40
2018-11-04T09:03:47.727Z,16.30
2018-11-04T09:04:47.761Z,16.60
2018-11-04T09:05:47.796Z,17.70
2018-11-04T09:06:47.830Z,15.50
2018-11-04T09:07:47.865Z,16.60
2018-11-04T09:08:47.898Z,15.80
2018-11-04T09:09:47.939Z,16.50
2018-11-04T09:10:47.968Z,16.40
2018-11-04T09:11:48.003Z,15.80
2018-11-04T09:12:48.036Z,17.10
2018-11-04T09:13:48.072Z,16.60
2018-11-04T09:14:48.106Z,14.40
2018-11-04T09:15:48.146Z,17.30
2018-11-04T09:16:48.175Z,16.30
2018-11-04T09:17:48.210Z,14.00
2018-11-04T09:18:48.245Z,15.80
2018-11-04T09:19:48.279Z,16.00
2018-11-04T09:20:48.314Z,15.30
2018-11-04T09:21:48.527Z,15.70
2018-11-04T09:22:48.383Z,15.80
2018-11-04T09:23:48.481Z,15.40
2018-11-04T09:24:48.456Z,16.00
2018-11-04T09:25:48.486Z,15.90
2018-11-04T09:26:48.521Z,15.40
2018-11-04T09:27:48.558Z,17.30
2018-11-04T09:28:48.591Z,16.40
2018-11-04T09:29:48.627Z,16.20
2018-11-04T09:30:48.662Z,16.10
2018-11-04T09:31:48.698Z,16.10
2018-11-04T09:32:48.732Z,15.50
2018-11-04T09:33:48.768Z,16.60
2018-11-04T09:34:48.841Z,16.40
2018-11-04T09:35:49.051Z,14.70
2018-11-04T09:36:48.872Z,15.00
2018-11-04T09:37:48.910Z,17.30
2018-11-04T09:38:48.944Z,16.60
2018-11-04T09:39:48.980Z,15.00
2018-11-04T09:40:49.015Z,16.30
2018-11-04T09:41:49.052Z,15.80
2018-11-04T09:42:49.089Z,16.80
2018-11-04T09:43:49.124Z,16.40
2018-11-04T09:44:49.159Z,15.30
2018-11-04T09:45:49.196Z,15.50
2018-11-04T09:46:49.232Z,16.80
2018-11-04T09:47:49.269Z,16.00
2018-11-04T09:48:49.313Z,16.00
2018-11-04T09:49:49.387Z,15.80
2018-11-04T09:50:49.377Z,17.30
2018-11-04T09:51:49.414Z,18.10
2018-11-04T09:52:49.453Z,17.10
2018-11-04T09:53:49.488Z,18.20
2018-11-04T09:54:49.527Z,16.20
2018-11-04T09:55:49.566Z,17.80
2018-11-04T09:56:49.625Z,19.20
2018-11-04T09:57:49.642Z,19.60
2018-11-04T09:58:49.678Z,19.20
2018-11-04T09:59:49.716Z,19.30
2018-11-04T10:00:49.754Z,19.70
2018-11-04T10:01:49.792Z,19.20
2018-11-04T10:02:49.831Z,18.70
2018-11-04T10:03:49.871Z,19.90
2018-11-04T10:04:49.911Z,19.40
2018-11-04T10:05:49.949Z,20.10
2018-11-04T10:06:49.988Z,19.70
2018-11-04T10:07:50.028Z,19.60
2018-11-04T10:08:50.067Z,19.90
2018-11-04T10:09:50.113Z,19.60
2018-11-04T10:10:50.148Z,17.70
2018-11-04T10:11:50.191Z,19.30
2018-11-04T10:12:50.228Z,18.20
2018-11-04T10:13:50.270Z,18.50
2018-11-04T10:14:50.312Z,18.60
2018-11-04T10:15:50.352Z,19.60
2018-11-04T10:17:50.434Z,17.90
2018-11-04T10:18:50.583Z,18.40
2018-11-04T10:19:50.833Z,18.60
2018-11-04T10:20:51.070Z,17.40
2018-11-04T10:21:50.599Z,18.60
2018-11-04T10:22:50.642Z,18.40
2018-11-04T10:23:50.684Z,19.00
2018-11-04T10:24:50.725Z,17.30
2018-11-04T10:25:50.767Z,18.80
2018-11-04T10:26:50.812Z,18.90
2018-11-04T10:27:50.852Z,18.10
2018-11-04T10:28:53.517Z,17.40
2018-11-04T10:29:50.940Z,18.30
2018-11-04T10:30:50.982Z,16.90
2018-11-04T10:31:51.025Z,16.90
2018-11-04T10:32:51.067Z,17.90
2018-11-04T10:33:51.109Z,17.40
2018-11-04T10:34:51.154Z,18.20
2018-11-04T10:35:51.197Z,17.80
2018-11-04T10:36:51.239Z,17.60
2018-11-04T10:37:51.283Z,16.30
2018-11-04T10:38:51.327Z,18.10
2018-11-04T10:39:51.375Z,18.10
2018-11-04T10:40:51.414Z,17.00
2018-11-04T10:41:51.463Z,17.30
2018-11-04T10:42:51.502Z,17.10
2018-11-04T10:43:51.547Z,17.30
2018-11-04T10:44:51.590Z,17.80
2018-11-04T10:45:51.634Z,18.20
2018-11-04T10:46:51.679Z,16.80
2018-11-04T10:47:51.724Z,16.50
2018-11-04T10:48:51.767Z,17.70
2018-11-04T10:49:51.873Z,16.70
2018-11-04T10:50:51.857Z,17.40
2018-11-04T10:51:51.904Z,17.20
2018-11-04T10:52:51.946Z,17.10
2018-11-04T10:53:51.991Z,16.70
2018-11-04T10:54:52.035Z,16.20
2018-11-04T10:55:52.242Z,17.70
2018-11-04T10:56:52.126Z,18.10
2018-11-04T10:57:52.171Z,16.20
2018-11-04T10:58:52.274Z,16.80
2018-11-04T10:59:52.263Z,17.10
2018-11-04T11:00:52.306Z,17.30
2018-11-04T11:01:52.352Z,17.60
2018-11-04T11:02:52.398Z,17.10
2018-11-04T11:03:52.469Z,16.50
2018-11-04T11:04:52.488Z,17.50
2018-11-04T11:05:52.533Z,16.50
2018-11-04T11:06:52.600Z,16.70
2018-11-04T11:08:52.670Z,16.40
2018-11-04T11:10:52.810Z,17.80
2018-11-04T11:11:52.823Z,17.90
2018-11-04T11:12:52.852Z,17.90
2018-11-04T11:13:52.899Z,16.60
2018-11-04T11:14:52.945Z,16.20
2018-11-04T11:15:53.013Z,15.50
2018-11-04T11:16:53.037Z,16.70
2018-11-04T11:17:56.925Z,17.20
2018-11-04T11:18:53.131Z,17.40
2018-11-04T11:19:53.175Z,17.10
2018-11-04T11:20:55.041Z,16.90
2018-11-04T11:21:53.289Z,16.80
2018-11-04T11:23:53.694Z,17.00
2018-11-04T11:24:53.432Z,17.20
2018-11-04T11:25:53.452Z,17.70
2018-11-04T11:26:53.499Z,16.60
2018-11-04T11:27:53.597Z,17.20
2018-11-04T11:28:53.592Z,15.70
2018-11-04T11:29:53.654Z,15.50
2018-11-04T11:30:53.686Z,15.40
2018-11-04T11:31:53.733Z,15.80
2018-11-04T11:32:53.777Z,18.10
2018-11-04T11:33:53.824Z,17.00
2018-11-04T11:34:53.872Z,16.50
2018-11-04T11:35:53.918Z,16.90
2018-11-04T11:36:53.965Z,16.30
2018-11-04T11:37:54.128Z,16.00
2018-11-04T11:38:54.057Z,16.20
2018-11-04T11:39:54.104Z,16.10
2018-11-04T11:40:54.151Z,17.30
2018-11-04T11:41:54.196Z,15.60
2018-11-04T11:42:54.247Z,16.00
2018-11-04T11:43:54.292Z,16.40
2018-11-04T11:44:57.106Z,16.40
2018-11-04T11:45:54.385Z,16.10
2018-11-04T11:46:54.431Z,16.40
2018-11-04T11:47:54.504Z,15.90
2018-11-04T11:48:54.523Z,15.50
2018-11-04T11:49:54.570Z,15.20
2018-11-04T11:50:54.617Z,14.40
2018-11-04T11:51:54.666Z,16.60
2018-11-04T11:52:54.706Z,17.00
2018-11-04T11:53:54.752Z,16.30
2018-11-04T11:54:54.800Z,16.80
2018-11-04T11:55:54.841Z,17.80
2018-11-04T11:56:54.886Z,18.20
2018-11-04T11:57:54.928Z,17.70
2018-11-04T11:58:54.970Z,17.70
2018-11-04T11:59:55.014Z,19.80
2018-11-04T12:00:55.055Z,19.70
2018-11-04T12:01:55.143Z,20.00
2018-11-04T12:02:55.147Z,19.70
2018-11-04T12:03:55.181Z,19.70
2018-11-04T12:04:55.222Z,19.70
2018-11-04T12:05:55.265Z,20.80
2018-11-04T12:06:55.306Z,21.30
2018-11-04T12:07:55.345Z,19.90
2018-11-04T12:08:55.392Z,20.20
2018-11-04T12:09:55.429Z,20.80
2018-11-04T12:10:55.467Z,21.20
2018-11-04T12:11:59.142Z,20.10
2018-11-04T12:12:55.547Z,20.10
2018-11-04T12:13:55.587Z,21.30
2018-11-04T12:14:55.626Z,22.00
2018-11-04T12:15:55.689Z,21.90
2018-11-04T12:16:55.725Z,22.30
2018-11-04T12:17:55.778Z,22.90
2018-11-04T12:18:55.782Z,22.20
2018-11-04T12:19:55.821Z,21.90
2018-11-04T12:20:55.859Z,22.60
2018-11-04T12:21:55.898Z,22.60
2018-11-04T12:22:55.937Z,22.60
2018-11-04T12:23:56.036Z,22.70
2018-11-04T12:24:56.012Z,22.70
2018-11-04T12:25:56.052Z,22.60
2018-11-04T12:26:56.416Z,22.60
2018-11-04T12:27:56.127Z,22.40
2018-11-04T12:28:56.164Z,22.40
2018-11-04T12:29:56.201Z,21.80
2018-11-04T12:30:56.239Z,21.50
2018-11-04T12:31:56.276Z,22.40
2018-11-04T12:32:56.313Z,22.00
2018-11-04T12:33:56.350Z,23.40
2018-11-04T12:34:56.388Z,22.50
2018-11-04T12:35:56.430Z,23.40
2018-11-04T12:36:56.461Z,22.30
2018-11-04T12:37:56.500Z,22.20
2018-11-04T12:38:56.537Z,22.60
2018-11-04T12:39:56.573Z,24.10
2018-11-04T12:40:56.611Z,22.40
2018-11-04T12:41:56.646Z,22.80
2018-11-04T12:42:56.683Z,23.50
2018-11-04T12:43:56.728Z,22.20
2018-11-04T12:44:56.757Z,23.10
2018-11-04T12:45:56.795Z,22.10
2018-11-04T12:46:56.833Z,22.40
2018-11-04T12:47:56.867Z,21.60
2018-11-04T12:48:56.904Z,22.10
2018-11-04T12:49:56.940Z,22.70
2018-11-04T12:50:56.977Z,22.70
2018-11-04T12:51:57.012Z,22.10
2018-11-04T12:52:57.049Z,21.70
2018-11-04T12:53:57.085Z,21.90
2018-11-04T12:54:57.122Z,20.50
2018-11-04T12:55:57.158Z,21.50
2018-11-04T12:56:57.195Z,22.50